Flight Track Log - Related Links

Times and Time Zones

All times are in EDT time to prevent confusion due to time zone crossing. See the N53NW flight status page for this flight to view local times or setup timezone preferences in your user account.

Time Position Orientation Groundspeed Altitude Reporting Facility
EDT Latitude Longitude Course Direction KTS MPH feet Rate Location/Type
Sun 02:00:09 PM 38.2044 -122.3106 39° Northeast 150 173 1,300  Level Oakland Center
Sun 02:02:13 PM 38.2714 -122.4044 312° West 231 266 5,200 2,141 Climbing Oakland Center
Sun 02:03:14 PM 38.3411 -122.4053 359° North 246 283 7,900 1,707 Climbing Oakland Center
Sun 02:04:00 PM 38.1502 -121.5992 85° East  Level Estimated
Sun 02:04:16 PM 38.4203 -122.3953 North 279 321 8,700  Level Oakland Center
Sun 02:05:00 PM 38.2339 -121.5126 39° Northeast  Level FlightAware Approximate
Sun 02:05:17 PM 38.4964 -122.3694 15° North 291 335 11,500  Level Oakland Center
Sun 02:06:19 PM 38.5331 -122.2728 64° Northeast 305 351 14,400 2,780 Climbing Oakland Center
Sun 02:07:20 PM 38.5358 -122.1569 88° East 323 372 17,200 3,024 Climbing Oakland Center
Sun 02:08:22 PM 38.5378 -122.0219 89° East 318 366 20,600 2,855 Climbing Oakland Center
Sun 02:09:24 PM 38.5403 -121.9128 88° East 310 357 23,100 2,293 Climbing Oakland Center
Sun 02:10:25 PM 38.5414 -121.8139 89° East 307 353 25,300 2,244 Climbing Oakland Center
Sun 02:11:27 PM 38.5431 -121.7042 89° East 309 356 27,700 2,439 Climbing Oakland Center
Sun 02:12:28 PM 38.5450 -121.5725 89° East 309 356 30,300 2,146 Climbing Oakland Center
Sun 02:13:30 PM 38.5475 -121.4758 88° East 306 352 32,100 1,512 Climbing Oakland Center
Sun 02:14:31 PM 38.5492 -121.3642 89° East 311 358 33,400 1,122 Climbing Oakland Center
Sun 02:15:33 PM 38.5492 -121.2428 90° East 332 382 34,400 1,122 Climbing Oakland Center
Sun 02:16:34 PM 38.5514 -121.0831 89° East 362 417 35,700 1,073 Climbing Oakland Center
Sun 02:17:36 PM 38.5522 -120.9489 90° East 374 430 36,600 976 Climbing Oakland Center
Sun 02:18:37 PM 38.5525 -120.8142 90° East 379 436 37,700 976 Climbing Oakland Center
Sun 02:19:39 PM 38.5536 -120.6772 89° East 384 442 38,600 878 Climbing Oakland Center
Sun 02:20:40 PM 38.5528 -120.5392 90° East 389 448 39,500 732 Climbing Oakland Center
Sun 02:21:42 PM 38.5536 -120.3983 90° East 395 455 40,100 585 Climbing Oakland Center
Sun 02:22:43 PM 38.5542 -120.2561 90° East 400 460 40,700 634 Climbing Oakland Center
Sun 02:23:45 PM 38.5536 -120.1136 90° East 402 463 41,400 732 Climbing Oakland Center
Sun 02:24:46 PM 38.5533 -119.9717 90° East 399 459 42,200 829 Climbing Oakland Center
Sun 02:25:48 PM 38.5528 -119.8044 90° East 394 453 43,100 726 Climbing Oakland Center
Sun 02:26:50 PM 38.5558 -119.6619 88° East 388 447 43,700 585 Climbing Oakland Center
Sun 02:27:51 PM 38.5531 -119.5225 91° East 392 451 44,300 537 Climbing Oakland Center
Sun 02:28:53 PM 38.5531 -119.3831 90° East 394 453 44,800 341 Climbing Oakland Center
Sun 02:29:54 PM 38.5522 -119.2461 90° East 389 448 45,000 98 Climbing Oakland Center
Sun 02:30:56 PM 38.5508 -119.1044 91° East 397 457 45,000  Level Oakland Center
Sun 02:31:57 PM 38.5497 -118.9597 91° East 407 468 45,000  Level Oakland Center
Sun 02:32:59 PM 38.5481 -118.8172 91° East 404 465 45,000  Level Oakland Center
Sun 02:34:00 PM 38.5467 -118.6464 91° East 403 464 45,000  Level Oakland Center
Sun 02:35:02 PM 38.5442 -118.5036 91° East 405 466 45,000  Level Oakland Center
Sun 02:36:03 PM 38.5422 -118.3589 91° East 408 470 45,000  Level Oakland Center
Sun 02:37:05 PM 38.5400 -118.2144 91° East 409 471 45,000  Level Oakland Center
Sun 02:38:07 PM 38.5375 -118.0567 91° East 415 478 45,000  Level Oakland Center
Sun 02:39:08 PM 38.5350 -117.9072 91° East 418 481 45,000  Level Oakland Center
Sun 02:40:10 PM 38.5322 -117.7578 91° East 420 483 45,000  Level Oakland Center
Sun 02:41:11 PM 38.5286 -117.6075 92° East 421 484 45,000  Level Oakland Center
Sun 02:42:13 PM 38.5253 -117.4547 92° East 425 489 45,000  Level Oakland Center
Sun 02:43:14 PM 38.5214 -117.3022 92° East 427 491 45,000  Level Oakland Center
Sun 02:44:16 PM 38.5103 -117.1503 95° East 427 491 45,000  Level Oakland Center
Sun 02:45:17 PM 38.4972 -116.9972 96° East 428 493 45,000  Level Oakland Center
Sun 02:46:19 PM 38.4839 -116.8447 96° East 430 495 45,000  Level Oakland Center
Sun 02:47:20 PM 38.4708 -116.6922 96° East 430 495 45,000  Level Oakland Center
Sun 02:48:22 PM 38.4547 -116.5122 96° East 424 488 45,000  Level Oakland Center
Sun 02:49:23 PM 38.4411 -116.3614 97° East 426 490 45,000  Level Oakland Center
Sun 02:50:25 PM 38.4283 -116.2114 96° East 426 490 45,000  Level Oakland Center
Sun 02:51:26 PM 38.4139 -116.0619 97° East 425 489 45,000  Level Oakland Center
Sun 02:52:56 PM 38.3953 -115.8517 96° East 427 491 45,000  Level Salt Lake Center
Sun 02:53:58 PM 38.3808 -115.6997 97° East 431 496 45,000  Level Salt Lake Center
Sun 02:55:00 PM 38.3639 -115.5183 97° East 431 496 45,000  Level Salt Lake Center
Sun 02:56:02 PM 38.3489 -115.3669 97° East 431 496 45,000  Level Salt Lake Center
Sun 02:57:04 PM 38.3353 -115.2186 97° East 434 499 45,000  Level Salt Lake Center
Sun 02:58:06 PM 38.3200 -115.0658 97° East 436 502 45,000  Level Salt Lake Center
Sun 02:59:08 PM 38.3047 -114.9139 97° East 435 501 45,000  Level Salt Lake Center
Sun 03:00:10 PM 38.2886 -114.7617 98° East 435 501 45,000  Level Salt Lake Center
Sun 03:01:12 PM 38.2711 -114.5775 97° East 438 504 45,000  Level Salt Lake Center
Sun 03:02:14 PM 38.2542 -114.4253 98° East 437 503 45,000  Level Salt Lake Center
Sun 03:03:16 PM 38.2228 -114.2792 105° East 431 496 45,000  Level Salt Lake Center
Sun 03:04:17 PM 38.1842 -114.1358 109° East 430 495 45,000  Level Salt Lake Center
Sun 03:05:19 PM 38.1461 -113.9906 108° East 431 496 45,000  Level Salt Lake Center
Sun 03:06:21 PM 38.1086 -113.8469 108° East 430 495 45,000  Level Salt Lake Center
Sun 03:07:23 PM 38.0606 -113.6742 109° East 432 497 45,000  Level Salt Lake Center
Sun 03:08:25 PM 38.0228 -113.5300 108° East 432 497 45,000  Level Salt Lake Center
Sun 03:09:27 PM 37.9822 -113.3875 110° East 430 495 45,000  Level Salt Lake Center
Sun 03:10:29 PM 37.9428 -113.2431 109° East 433 498 45,000  Level Salt Lake Center
Sun 03:11:31 PM 37.9042 -113.0997 109° East 430 495 45,000  Level Salt Lake Center
Sun 03:12:33 PM 37.8644 -112.9556 109° East 431 496 45,000  Level Salt Lake Center
Sun 03:13:35 PM 37.8250 -112.8100 109° East 433 498 45,000  Level Salt Lake Center
Sun 03:14:36 PM 37.7839 -112.6639 110° East 435 501 45,000  Level Salt Lake Center
Sun 03:15:38 PM 37.7422 -112.5192 110° East 434 499 45,000  Level Salt Lake Center
Sun 03:16:40 PM 37.6933 -112.3467 110° East 433 498 45,000  Level Salt Lake Center
Sun 03:17:42 PM 37.6525 -112.2047 110° East 431 496 45,000  Level Salt Lake Center
Sun 03:18:44 PM 37.6106 -112.0617 110° East 432 497 45,000  Level Salt Lake Center
Sun 03:19:46 PM 37.5697 -111.9194 110° East 432 497 45,000  Level Salt Lake Center
Sun 03:20:19 PM 37.5456 -111.8358 110° East 427 491 45,000  Level Denver Center
Sun 03:21:21 PM 37.5053 -111.6953 110° East 427 491 45,000  Level Denver Center
Sun 03:22:23 PM 37.4650 -111.5553 110° East 426 490 45,000  Level Denver Center
Sun 03:23:25 PM 37.4222 -111.4144 111° Southeast 431 496 45,000  Level Denver Center
Sun 03:24:28 PM 37.3822 -111.2750 110° East 428 493 45,000  Level Denver Center
Sun 03:25:30 PM 37.3325 -111.1075 110° East 426 490 45,000  Level Denver Center
Sun 03:26:32 PM 37.2897 -110.9669 111° Southeast 429 494 45,000  Level Denver Center
Sun 03:27:34 PM 37.2483 -110.8272 110° East 430 495 45,000  Level Denver Center
Sun 03:28:36 PM 37.2053 -110.6861 111° Southeast 433 498 45,000  Level Denver Center
Sun 03:29:38 PM 37.1639 -110.5444 110° East 434 499 45,000  Level Denver Center
Sun 03:30:40 PM 37.1208 -110.4025 111° Southeast 436 502 45,000  Level Denver Center
Sun 03:31:42 PM 37.0678 -110.2314 111° Southeast 439 505 45,000 -194 Level Denver Center
Sun 03:32:44 PM 37.0283 -110.0994 110° East 440 506 44,600 -823 Descending Denver Center
Sun 03:33:46 PM 36.9772 -109.9369 111° Southeast 448 516 43,300 -774 Descending Denver Center
Sun 03:34:48 PM 36.9353 -109.7986 111° Southeast 444 511 43,000 -145 Descending Denver Center
Sun 03:35:50 PM 36.8842 -109.6378 112° Southeast 445 512 43,000  Level Denver Center
Sun 03:36:52 PM 36.8408 -109.4994 111° Southeast 446 513 43,000  Level Denver Center
Sun 03:37:54 PM 36.7892 -109.3386 112° Southeast 447 514 43,000  Level Denver Center
Sun 03:38:56 PM 36.7458 -109.1994 111° Southeast 448 516 43,000  Level Denver Center
Sun 03:39:58 PM 36.6933 -109.0383 112° Southeast 445 512 43,000  Level Denver Center
Sun 03:41:00 PM 36.6492 -108.8986 111° Southeast 449 517 43,000  Level Denver Center
Sun 03:42:03 PM 36.6050 -108.7589 111° Southeast 450 518 43,000  Level Denver Center
Sun 03:43:05 PM 36.5522 -108.5972 112° Southeast 449 517 43,000  Level Denver Center
Sun 03:44:07 PM 36.5069 -108.4569 112° Southeast 453 521 43,000  Level Denver Center
Sun 03:45:09 PM 36.4536 -108.2944 112° Southeast 453 521 43,000  Level Denver Center
Sun 03:46:11 PM 36.4083 -108.1558 112° Southeast 450 518 43,000  Level Denver Center
Sun 03:47:13 PM 36.3544 -107.9936 112° Southeast 452 520 43,000  Level Denver Center
Sun 03:48:15 PM 36.3086 -107.8550 112° Southeast 452 520 43,000  Level Denver Center
Sun 03:49:17 PM 36.2544 -107.6928 112° Southeast 455 524 43,000  Level Denver Center
Sun 03:50:19 PM 36.2075 -107.5547 113° Southeast 454 522 43,000  Level Denver Center
Sun 03:51:21 PM 36.1639 -107.4258 113° Southeast 455 524 43,000  Level Denver Center
Sun 03:52:23 PM 36.1047 -107.2514 113° Southeast 456 525 43,000  Level Denver Center
Sun 03:53:25 PM 36.0564 -107.1064 112° Southeast 456 525 43,000  Level Denver Center
Sun 03:54:27 PM 36.0053 -106.9597 113° Southeast 461 531 43,000  Level Denver Center
Sun 03:55:29 PM 35.9567 -106.8147 112° Southeast 457 526 43,000  Level Denver Center
Sun 03:56:45 PM 35.8908 -106.6294 114° Southeast 462 532 43,000  Level Albuquerque Center
Sun 03:57:47 PM 35.8333 -106.4614 113° Southeast 467 537 43,000  Level Albuquerque Center
Sun 03:58:49 PM 35.7817 -106.3144 113° Southeast 469 540 43,000  Level Albuquerque Center
Sun 03:59:51 PM 35.7322 -106.1728 113° Southeast 458 527 43,000  Level Albuquerque Center
Sun 04:00:53 PM 35.6825 -106.0269 113° Southeast 459 528 43,000  Level Albuquerque Center
Sun 04:01:55 PM 35.6239 -105.8658 114° Southeast 469 540 43,000  Level Albuquerque Center
Sun 04:02:57 PM 35.5708 -105.7183 114° Southeast 472 543 43,000  Level Albuquerque Center
Sun 04:03:59 PM 35.5186 -105.5722 114° Southeast 468 539 43,000  Level Albuquerque Center
Sun 04:05:01 PM 35.4639 -105.4208 114° Southeast 469 540 43,000  Level Albuquerque Center
Sun 04:06:03 PM 35.4094 -105.2742 114° Southeast 470 541 43,000  Level Albuquerque Center
Sun 04:07:05 PM 35.3569 -105.1267 114° Southeast 470 541 43,000  Level Albuquerque Center
Sun 04:08:07 PM 35.2939 -104.9550 114° Southeast 472 543 43,000  Level Albuquerque Center
Sun 04:09:09 PM 35.2400 -104.8081 114° Southeast 471 542 43,000  Level Albuquerque Center
Sun 04:10:11 PM 35.1861 -104.6619 114° Southeast 471 542 43,000  Level Albuquerque Center
Sun 04:11:13 PM 35.1350 -104.5175 113° Southeast 475 547 43,000  Level Albuquerque Center
Sun 04:12:15 PM 35.0825 -104.3714 114° Southeast 473 544 43,000  Level Albuquerque Center
Sun 04:13:17 PM 35.0153 -104.2025 116° Southeast 470 541 43,000 -48 Level Albuquerque Center
Sun 04:14:19 PM 34.9617 -104.0572 114° Southeast 470 541 42,900 -677 Descending Albuquerque Center
Sun 04:15:21 PM 34.9081 -103.9128 114° Southeast 469 540 41,600 -919 Descending Albuquerque Center
Sun 04:16:23 PM 34.8542 -103.7714 115° Southeast 461 531 41,000 -290 Descending Albuquerque Center
Sun 04:17:25 PM 34.7986 -103.6278 115° Southeast 463 533 41,000  Level Albuquerque Center
Sun 04:18:27 PM 34.7433 -103.4811 115° Southeast 472 543 41,000  Level Albuquerque Center
Sun 04:19:30 PM 34.6858 -103.3328 115° Southeast 478 550 41,000  Level Albuquerque Center
Sun 04:20:32 PM 34.6189 -103.1572 115° Southeast 485 558 41,000  Level Albuquerque Center
Sun 04:21:34 PM 34.5611 -103.0083 115° Southeast 486 559 41,000  Level Albuquerque Center
Sun 04:22:36 PM 34.5044 -102.8603 115° Southeast 482 555 41,000  Level Albuquerque Center
Sun 04:23:38 PM 34.4800 -102.7056 101° East 481 554 41,000  Level Albuquerque Center
Sun 04:24:40 PM 34.4647 -102.5469 97° East 479 551 41,000  Level Albuquerque Center
Sun 04:25:42 PM 34.4486 -102.3903 97° East 476 548 41,000  Level Albuquerque Center
Sun 04:26:44 PM 34.4278 -102.2011 98° East 475 547 41,000  Level Albuquerque Center
Sun 04:27:46 PM 34.4122 -102.0453 97° East 473 544 41,000  Level Albuquerque Center
Sun 04:28:48 PM 34.3956 -101.8894 97° East 471 542 41,000  Level Albuquerque Center
Sun 04:29:50 PM 34.3781 -101.7322 98° East 472 543 41,000  Level Albuquerque Center
Sun 04:30:44 PM 34.3608 -101.5744 97° East 474 545 41,000  Level Fort Worth Center
Sun 04:31:46 PM 34.3431 -101.4189 98° East 471 542 41,000  Level Fort Worth Center
Sun 04:32:48 PM 34.3256 -101.2619 98° East 473 544 41,000  Level Fort Worth Center
Sun 04:33:50 PM 34.3072 -101.1058 98° East 473 544 41,000  Level Fort Worth Center
Sun 04:34:52 PM 34.2853 -100.9186 98° East 471 542 41,000  Level Fort Worth Center
Sun 04:35:54 PM 34.2678 -100.7622 98° East 471 542 41,000  Level Fort Worth Center
Sun 04:36:57 PM 34.2481 -100.6072 99° East 470 541 41,000  Level Fort Worth Center
Sun 04:37:59 PM 34.2294 -100.4519 98° East 469 540 41,000  Level Fort Worth Center
Sun 04:39:01 PM 34.2083 -100.2858 99° East 469 540 41,000  Level Fort Worth Center
Sun 04:40:03 PM 34.1725 -100.1331 106° East 472 543 41,000  Level Fort Worth Center
Sun 04:41:05 PM 34.1325 -99.9814 108° East 473 544 41,000  Level Fort Worth Center
Sun 04:42:07 PM 34.1089 -99.8261 100° East 472 543 41,000  Level Fort Worth Center
Sun 04:43:09 PM 34.0967 -99.6700 95° East 467 537 41,000  Level Fort Worth Center
Sun 04:44:11 PM 34.0844 -99.4831 94° East 466 536 41,000 -194 Level Fort Worth Center
Sun 04:45:13 PM 34.0750 -99.3283 94° East 462 532 40,600 -1,694 Descending Fort Worth Center
Sun 04:46:15 PM 34.0664 -99.1742 94° East 461 531 37,500 -2,806 Descending Fort Worth Center
Sun 04:47:17 PM 34.0628 -99.0369 92° East 450 518 34,800 -2,758 Descending Fort Worth Center
Sun 04:48:19 PM 34.1064 -98.8764 72° East 441 507 31,800 -2,710 Descending Fort Worth Center
Sun 04:49:21 PM 34.1453 -98.7325 72° East 448 516 29,200 -2,516 Descending Fort Worth Center
Sun 04:50:23 PM 34.1828 -98.5939 72° East 442 509 26,600 -2,468 Descending Fort Worth Center
Sun 04:51:25 PM 34.2133 -98.4497 76° East 433 498 24,100 -1,258 Descending Fort Worth Center
Sun 04:52:27 PM 34.1517 -98.3386 124° Southeast 411 473 24,000 -629 Descending Fort Worth Center
Sun 04:53:29 PM 34.0600 -98.2217 133° Southeast 427 491 22,800 -1,392 Descending Fort Worth Center
Sun 04:54:32 PM 33.9772 -98.1178 134° Southeast 408 470 21,100 -1,632 Descending Fort Worth Center
Sun 04:55:34 PM 33.8986 -98.0206 134° Southeast 388 447 19,400 -1,597 Descending Fort Worth Center
Sun 04:56:36 PM 33.8222 -97.9256 134° Southeast 374 430 17,800 -1,452 Descending Fort Worth Center
Sun 04:57:38 PM 33.7483 -97.8333 134° Southeast 367 422 16,400 -1,403 Descending Fort Worth Center
Sun 04:58:40 PM 33.6742 -97.7425 134° Southeast 363 418 14,900 -1,392 Descending Fort Worth Center
Sun 04:59:43 PM 33.6036 -97.6544 134° Southeast 354 407 13,500 -1,296 Descending Fort Worth Center
Sun 05:00:45 PM 33.5339 -97.5703 135° Southeast 347 399 12,200 -1,210 Descending Fort Worth Center
Sun 05:01:47 PM 33.4678 -97.4897 135° Southeast 340 391 11,000 -1,210 Descending Fort Worth Center
Sun 05:02:49 PM 33.3981 -97.4128 137° Southeast 317 365 9,700 -1,210 Descending Fort Worth Center
Sun 05:03:51 PM 33.3658 -97.3297 115° Southeast 296 341 8,500 -1,409 Descending Fort Worth Center
Sun 05:05:01 PM 33.3667 -97.2167 89° East 279 321 6,600 -1,615 Descending Dallas / Fort Worth TRACON
Sun 05:06:01 PM 33.3500 -97.1167 101° East 278 320 5,000 -1,300 Descending Dallas / Fort Worth TRACON
Sun 05:07:01 PM 33.3500 -97.0333 90° East 259 298 4,000 -650 Descending Dallas / Fort Worth TRACON
Sun 05:08:01 PM 33.3333 -96.9500 103° East 267 307 3,700 -500 Descending Dallas / Fort Worth TRACON
Sun 05:09:01 PM 33.2833 -96.8833 132° Southeast 252 290 3,000 -318 Descending Dallas / Fort Worth TRACON
Sun 05:10:13 PM 33.2167 -96.8333 148° Southeast 256 295 3,000  Level Dallas / Fort Worth TRACON
Sun 05:11:05 PM 33.1678 -96.8100 158° South 241 277 3,000 -526 Level Fort Worth Center
Sun 05:12:07 PM 33.1167 -96.7833 156° South 207 238 2,000 -492 Descending Dallas / Fort Worth TRACON
Sun 05:13:07 PM 33.0500 -96.7667 168° South 205 236 2,000  Level Dallas / Fort Worth TRACON
Sun 05:14:01 PM 33.0000 -96.7833 196° South 205 236 2,000 -211 Level Dallas / Fort Worth TRACON
Sun 05:15:01 PM 32.9500 -96.7833 180° South 150 173 1,600 -450 Descending Dallas / Fort Worth TRACON
Sun 05:16:01 PM 32.9500 -96.8167 270° West 123 142 1,100 -500 Descending Dallas / Fort Worth TRACON

Login

Don't have an account? Register now (free) for customized features, flight alerts, and more!